Time;durP1;ratioP1;P1;durP2;ratioP2;P2;SDS_P1;SDS_P2;PMS_P1;PMS_P2;Temp;Humidity;BMP_temperature;BMP_pressure;BME280_temperature;BME280_humidity;BME280_pressure;Samples;Min_cycle;Max_cycle;Signal;HPM_P1;HPM_P2
2022/03/18 00:00:47;;;;;;;19.33;16.77;;;3.60;99.90;;;;;;5031461;28;20199;-64
2022/03/18 00:03:13;;;;;;;24.47;19.77;;;3.60;99.90;;;;;;5033762;28;20195;-64
2022/03/18 00:05:39;;;;;;;21.13;18.20;;;3.60;99.90;;;;;;5029089;28;20179;-64
2022/03/18 00:08:05;;;;;;;23.50;16.17;;;3.70;99.90;;;;;;5042429;28;20272;-64
2022/03/18 00:10:31;;;;;;;21.33;18.57;;;3.70;99.90;;;;;;5051249;28;20242;-64
2022/03/18 00:12:57;;;;;;;20.10;16.57;;;3.60;99.90;;;;;;5049704;28;20729;-64
2022/03/18 00:15:24;;;;;;;19.30;17.37;;;3.60;99.90;;;;;;5049128;28;20676;-64
2022/03/18 00:17:52;;;;;;;19.37;16.57;;;3.60;99.90;;;;;;5042460;28;20179;-64
2022/03/18 00:20:18;;;;;;;18.23;16.33;;;3.50;99.90;;;;;;5040857;28;20192;-64
2022/03/18 00:22:45;;;;;;;19.47;17.43;;;3.60;99.90;;;;;;5055426;28;20183;-63
2022/03/18 00:25:12;;;;;;;22.13;17.07;;;3.60;99.90;;;;;;5053506;28;20197;-64
2022/03/18 00:27:39;;;;;;;25.40;19.30;;;3.50;99.90;;;;;;5054071;28;20217;-64
2022/03/18 00:30:06;;;;;;;27.33;17.83;;;3.50;99.90;;;;;;5051496;28;20202;-64
2022/03/18 00:32:32;;;;;;;24.03;17.80;;;3.40;99.90;;;;;;5034581;28;20191;-64
2022/03/18 00:34:58;;;;;;;18.90;16.87;;;3.40;99.90;;;;;;5035280;28;20568;-64
2022/03/18 00:37:24;;;;;;;20.80;18.20;;;3.40;99.90;;;;;;5044654;28;20186;-64
2022/03/18 00:39:50;;;;;;;23.50;17.33;;;3.40;99.90;;;;;;5046945;28;20276;-64
2022/03/18 00:42:16;;;;;;;24.23;18.50;;;3.40;99.90;;;;;;5034923;28;20242;-64
2022/03/18 00:44:41;;;;;;;26.63;18.80;;;3.40;99.90;;;;;;5040126;28;20213;-64
2022/03/18 00:52:03;;;;;;;21.07;18.63;;;3.40;99.90;;;;;;5054726;28;20177;-64
2022/03/18 00:52:37;;;;;;;20.03;17.80;;;3.40;99.90;;;;;;5054101;28;20675;-64
2022/03/18 00:55:04;;;;;;;22.53;18.43;;;3.30;99.90;;;;;;5035310;28;20191;-64
2022/03/18 00:57:29;;;;;;;25.60;18.70;;;3.30;99.90;;;;;;5033950;28;20167;-64
2022/03/18 00:59:55;;;;;;;20.63;18.50;;;3.30;99.90;;;;;;5035240;28;20530;-64
2022/03/18 01:02:20;;;;;;;24.60;19.97;;;3.30;99.90;;;;;;5049738;28;20682;-64
2022/03/18 01:04:46;;;;;;;25.13;21.73;;;3.30;99.90;;;;;;5048090;28;20198;-64
2022/03/18 01:07:11;;;;;;;21.60;19.33;;;3.30;99.90;;;;;;5053032;28;20602;-64
2022/03/18 01:09:37;;;;;;;29.17;21.37;;;3.30;99.90;;;;;;5052469;28;20329;-64
2022/03/18 01:12:04;;;;;;;26.53;20.63;;;3.30;99.90;;;;;;5054489;28;20225;-64
2022/03/18 01:14:29;;;;;;;24.63;19.00;;;3.30;99.90;;;;;;5042567;28;20322;-64
2022/03/18 01:16:55;;;;;;;22.23;18.63;;;3.30;99.90;;;;;;5041831;28;20258;-64
2022/03/18 01:19:21;;;;;;;23.00;20.17;;;3.30;99.90;;;;;;5054390;28;20175;-64
2022/03/18 01:21:46;;;;;;;26.90;19.33;;;3.30;99.90;;;;;;5052262;28;20562;-64
2022/03/18 01:24:12;;;;;;;27.23;20.07;;;3.30;99.90;;;;;;5052948;28;20325;-63
2022/03/18 01:26:39;;;;;;;21.83;19.43;;;3.40;99.90;;;;;;5049325;28;20179;-63
2022/03/18 01:29:04;;;;;;;22.77;19.13;;;3.40;99.90;;;;;;5033944;28;20179;-63
2022/03/18 01:31:30;;;;;;;23.27;19.83;;;3.30;99.90;;;;;;5034288;28;20702;-63
2022/03/18 01:33:56;;;;;;;26.57;20.20;;;3.30;99.90;;;;;;5033653;28;20174;-63
2022/03/18 01:36:21;;;;;;;27.63;20.30;;;3.30;99.90;;;;;;5034078;28;20255;-63
2022/03/18 01:38:47;;;;;;;26.87;21.63;;;3.30;99.90;;;;;;5053898;28;20221;-64
2022/03/18 01:41:13;;;;;;;24.53;22.13;;;3.30;99.90;;;;;;5053974;28;20194;-63
2022/03/18 01:43:47;;;;;;;24.10;21.73;;;3.30;99.90;;;;;;5040875;28;20194;-64
2022/03/18 01:46:14;;;;;;;22.97;20.90;;;3.30;99.90;;;;;;5053395;28;20179;-63
2022/03/18 01:48:41;;;;;;;24.83;22.27;;;3.30;99.90;;;;;;5053427;28;20178;-63
2022/03/18 01:51:07;;;;;;;26.23;23.57;;;3.30;99.90;;;;;;5053303;28;20704;-63
2022/03/18 01:53:38;;;;;;;25.90;23.07;;;3.20;99.90;;;;;;5037733;28;20194;-64
2022/03/18 01:56:05;;;;;;;26.43;22.30;;;3.20;99.90;;;;;;5033334;28;20631;-63
2022/03/18 01:58:31;;;;;;;25.87;23.13;;;3.20;99.90;;;;;;5049073;28;20214;-64
2022/03/18 02:00:57;;;;;;;25.43;22.47;;;3.10;99.90;;;;;;5051963;28;20705;-65
2022/03/18 02:03:22;;;;;;;26.80;24.00;;;3.10;99.90;;;;;;5051709;28;20183;-63
2022/03/18 02:05:48;;;;;;;23.13;20.83;;;3.10;99.90;;;;;;5052873;28;20190;-63
2022/03/18 02:08:20;;;;;;;20.70;18.63;;;3.00;99.90;;;;;;5040996;28;20190;-63
2022/03/18 02:10:46;;;;;;;22.47;18.70;;;3.00;99.90;;;;;;5038685;28;20702;-63
2022/03/18 02:13:12;;;;;;;22.33;18.57;;;2.90;99.90;;;;;;5052004;28;20178;-64
2022/03/18 02:15:38;;;;;;;26.73;21.37;;;2.80;99.90;;;;;;5051088;28;20180;-64
2022/03/18 02:18:05;;;;;;;23.10;20.67;;;2.80;99.90;;;;;;5053209;28;20167;-64
2022/03/18 02:20:32;;;;;;;27.80;23.40;;;2.70;99.90;;;;;;5050454;28;20174;-64
2022/03/18 02:22:57;;;;;;;27.93;22.47;;;2.70;99.90;;;;;;5033036;28;20172;-64
2022/03/18 02:25:23;;;;;;;24.20;21.80;;;2.60;99.90;;;;;;5033053;28;20255;-63
2022/03/18 02:28:01;;;;;;;26.47;22.93;;;2.60;99.90;;;;;;5033640;28;20179;-64
2022/03/18 02:30:28;;;;;;;25.63;23.03;;;2.60;99.90;;;;;;5032871;28;20615;-64
2022/03/18 02:32:55;;;;;;;27.00;20.80;;;2.60;99.90;;;;;;5052688;28;20174;-64
2022/03/18 02:35:21;;;;;;;26.30;19.87;;;2.70;99.90;;;;;;5052015;28;20277;-64
2022/03/18 02:37:46;;;;;;;22.60;20.03;;;2.70;99.90;;;;;;5050699;28;20178;-64
2022/03/18 02:40:14;;;;;;;24.27;19.90;;;2.70;99.90;;;;;;5052486;28;20233;-64
2022/03/18 02:42:41;;;;;;;22.17;18.03;;;2.70;99.90;;;;;;5033630;28;20191;-64
2022/03/18 02:45:08;;;;;;;28.07;19.63;;;2.70;99.90;;;;;;5032375;28;20546;-63
2022/03/18 02:47:34;;;;;;;25.50;20.23;;;2.70;99.90;;;;;;5033747;28;20198;-64
2022/03/18 02:49:59;;;;;;;27.27;19.77;;;2.70;99.90;;;;;;5032357;28;20207;-64
2022/03/18 02:52:25;;;;;;;23.23;19.53;;;2.70;99.90;;;;;;5044005;28;20207;-64
2022/03/18 02:54:51;;;;;;;31.20;21.57;;;2.70;99.90;;;;;;5051915;28;20178;-64
2022/03/18 02:57:16;;;;;;;26.63;20.97;;;2.80;99.90;;;;;;5040045;28;20519;-64
2022/03/18 02:59:42;;;;;;;25.57;20.37;;;2.80;99.90;;;;;;5032263;28;20183;-64
2022/03/18 03:02:08;;;;;;;26.30;19.43;;;2.90;99.90;;;;;;5041816;28;20203;-64
2022/03/18 03:04:34;;;;;;;30.83;22.43;;;2.90;99.90;;;;;;5047960;28;20191;-63
2022/03/18 03:09:43;;;;;;;30.67;21.83;;;3.00;99.90;;;;;;5033248;28;20635;-63
2022/03/18 03:12:09;;;;;;;27.80;20.63;;;3.10;99.90;;;;;;5032479;28;20188;-63
2022/03/18 03:14:36;;;;;;;23.63;19.20;;;3.20;99.90;;;;;;5033694;28;20545;-63
2022/03/18 03:17:02;;;;;;;25.43;19.47;;;3.30;99.90;;;;;;5050618;28;20228;-63
2022/03/18 03:19:29;;;;;;;28.33;19.90;;;3.30;99.90;;;;;;5051505;28;20258;-67
2022/03/18 03:21:55;;;;;;;27.73;19.90;;;3.30;99.90;;;;;;5051316;28;20222;-67
2022/03/18 03:24:21;;;;;;;28.73;19.23;;;3.30;99.90;;;;;;5053489;28;20668;-67
2022/03/18 03:26:47;;;;;;;30.80;19.73;;;3.30;99.90;;;;;;5034342;28;20181;-68
2022/03/18 03:29:12;;;;;;;24.67;18.47;;;3.30;99.90;;;;;;5033909;28;20188;-65
2022/03/18 03:31:38;;;;;;;22.50;18.67;;;3.30;99.90;;;;;;5033217;28;20241;-68
2022/03/18 03:34:03;;;;;;;28.77;19.07;;;3.30;99.90;;;;;;5031729;28;20178;-68
2022/03/18 03:36:29;;;;;;;25.07;20.53;;;3.20;99.90;;;;;;5045777;28;20206;-68
2022/03/18 03:38:55;;;;;;;29.20;18.83;;;3.10;99.90;;;;;;5053873;28;20171;-67
2022/03/18 03:41:22;;;;;;;25.30;17.90;;;3.10;99.90;;;;;;5051816;28;20205;-69
2022/03/18 03:43:48;;;;;;;20.83;18.60;;;3.00;99.90;;;;;;5052791;28;20272;-71
2022/03/18 03:46:14;;;;;;;22.37;19.97;;;2.90;99.90;;;;;;5035280;28;20226;-67
2022/03/18 03:48:39;;;;;;;20.57;18.57;;;2.90;99.90;;;;;;5031568;28;20550;-69
2022/03/18 03:51:05;;;;;;;21.83;18.67;;;2.80;99.90;;;;;;5034139;28;20214;-66
2022/03/18 03:53:31;;;;;;;24.57;20.93;;;2.60;99.90;;;;;;5083715;23;20221;-66
2022/03/18 03:55:57;;;;;;;23.70;19.80;;;2.50;99.90;;;;;;5072233;28;20212;-67
2022/03/18 03:58:22;;;;;;;27.80;19.33;;;2.50;99.90;;;;;;5073201;28;20170;-68
2022/03/18 04:00:48;;;;;;;19.03;17.13;;;2.50;99.90;;;;;;5061108;28;20566;-66
2022/03/18 04:03:14;;;;;;;19.60;17.43;;;2.50;99.90;;;;;;5050991;28;20209;-68
2022/03/18 04:05:40;;;;;;;27.43;17.33;;;2.40;99.90;;;;;;5045425;28;20176;-68
2022/03/18 04:08:05;;;;;;;21.47;16.73;;;2.40;99.90;;;;;;5033686;28;20202;-68
2022/03/18 04:10:31;;;;;;;22.33;20.03;;;2.40;99.90;;;;;;5052221;28;20324;-69
2022/03/18 04:12:57;;;;;;;24.40;20.20;;;2.50;99.90;;;;;;5052430;28;20186;-67
2022/03/18 04:15:23;;;;;;;21.27;16.60;;;2.50;99.90;;;;;;5051034;28;20187;-67
2022/03/18 04:17:49;;;;;;;24.77;17.47;;;2.60;99.90;;;;;;5052828;28;20170;-68
2022/03/18 04:20:18;;;;;;;20.40;16.83;;;2.50;99.90;;;;;;5048108;28;20552;-67
2022/03/18 04:22:44;;;;;;;19.33;16.30;;;2.60;99.90;;;;;;5033083;28;20307;-69
2022/03/18 04:25:10;;;;;;;30.87;18.00;;;2.60;99.90;;;;;;5043472;28;20178;-67
2022/03/18 04:27:37;;;;;;;19.97;16.60;;;2.60;99.90;;;;;;5046225;28;20720;-67
2022/03/18 04:30:04;;;;;;;22.03;17.43;;;2.50;99.90;;;;;;5033016;28;20206;-69
2022/03/18 04:32:30;;;;;;;23.33;19.70;;;2.40;99.90;;;;;;5044034;28;20194;-67
2022/03/18 04:34:56;;;;;;;21.70;18.63;;;2.30;99.90;;;;;;5051528;28;20267;-67
2022/03/18 04:37:21;;;;;;;20.30;15.80;;;2.30;99.90;;;;;;5050992;28;20606;-67
2022/03/18 04:39:47;;;;;;;21.73;17.93;;;2.20;99.90;;;;;;5052170;28;20250;-66
2022/03/18 04:42:13;;;;;;;19.70;17.50;;;2.10;99.90;;;;;;5044293;28;20203;-66
2022/03/18 04:44:38;;;;;;;24.63;17.07;;;2.00;99.90;;;;;;5029239;28;20242;-65
2022/03/18 04:47:04;;;;;;;19.90;17.47;;;1.90;99.90;;;;;;5032102;28;20613;-64
2022/03/18 04:49:30;;;;;;;24.93;16.07;;;1.80;99.90;;;;;;5030880;28;20646;-65
2022/03/18 04:51:55;;;;;;;22.17;17.90;;;1.80;99.90;;;;;;5035061;28;20253;-65
2022/03/18 04:54:21;;;;;;;25.93;20.43;;;1.70;99.90;;;;;;5050807;28;20171;-68
2022/03/18 04:59:31;;;;;;;28.00;20.33;;;1.60;99.90;;;;;;5050794;28;20580;-65
2022/03/18 05:01:57;;;;;;;28.87;18.33;;;1.60;99.90;;;;;;5047225;28;20195;-64
2022/03/18 05:04:22;;;;;;;25.27;17.97;;;1.60;99.90;;;;;;5031016;28;20168;-64
2022/03/18 05:06:48;;;;;;;27.70;18.43;;;1.50;99.90;;;;;;5035053;28;20214;-64
2022/03/18 05:09:13;;;;;;;25.60;17.77;;;1.50;99.90;;;;;;5034324;28;20183;-64
2022/03/18 05:11:39;;;;;;;26.07;17.87;;;1.50;99.90;;;;;;5034300;28;20199;-64
2022/03/18 05:14:05;;;;;;;23.70;17.80;;;1.50;99.90;;;;;;5034191;28;20555;-64
2022/03/18 05:16:31;;;;;;;22.90;18.07;;;1.40;99.90;;;;;;5034306;28;20191;-64
2022/03/18 05:18:57;;;;;;;21.17;17.40;;;1.40;99.90;;;;;;5034206;28;20171;-64
2022/03/18 05:21:23;;;;;;;22.00;17.47;;;1.50;99.90;;;;;;5034085;28;20172;-64
2022/03/18 05:23:48;;;;;;;27.67;17.13;;;1.50;99.90;;;;;;5049780;28;20206;-64
2022/03/18 05:26:14;;;;;;;23.10;18.27;;;1.40;99.90;;;;;;5044305;28;20190;-64
2022/03/18 05:28:41;;;;;;;28.87;18.20;;;1.40;99.90;;;;;;5033746;28;20180;-64
2022/03/18 05:31:07;;;;;;;19.97;17.83;;;1.30;99.90;;;;;;5034930;28;20557;-64
2022/03/18 05:33:32;;;;;;;23.67;18.20;;;1.20;99.90;;;;;;5033631;28;20194;-64
2022/03/18 05:35:58;;;;;;;20.97;17.77;;;1.20;99.90;;;;;;5039188;28;20265;-64
2022/03/18 05:38:25;;;;;;;22.10;17.57;;;1.20;99.90;;;;;;5053930;28;20669;-64
2022/03/18 05:40:51;;;;;;;20.43;17.70;;;1.20;99.90;;;;;;5051942;28;20187;-65
2022/03/18 05:43:17;;;;;;;19.33;17.27;;;1.20;99.90;;;;;;5053472;28;20564;-64
2022/03/18 05:45:42;;;;;;;27.63;18.60;;;1.20;99.90;;;;;;5036393;28;20206;-64
2022/03/18 05:48:08;;;;;;;27.17;17.30;;;1.20;99.90;;;;;;5033888;28;20616;-64
2022/03/18 05:50:35;;;;;;;25.20;17.10;;;1.30;99.90;;;;;;5048206;28;20198;-65
2022/03/18 05:53:01;;;;;;;22.17;17.60;;;1.20;99.90;;;;;;5053498;28;20241;-65
2022/03/18 05:56:52;;;;;;;25.67;17.80;;;1.20;99.90;;;;;;5040314;28;20662;-64
2022/03/18 05:58:14;;;;;;;20.77;17.87;;;1.20;99.90;;;;;;5053414;28;20175;-64
2022/03/18 06:00:41;;;;;;;25.37;19.63;;;1.30;99.90;;;;;;5053497;28;20173;-64
2022/03/18 06:03:07;;;;;;;26.73;19.03;;;1.30;99.90;;;;;;5052522;28;20570;-64
2022/03/18 06:05:32;;;;;;;26.13;18.73;;;1.30;99.90;;;;;;5052759;28;20167;-64
2022/03/18 06:11:48;;;;;;;25.57;19.67;;;1.30;99.90;;;;;;5047597;28;20183;-64
2022/03/18 06:13:28;;;;;;;21.47;18.93;;;1.30;99.90;;;;;;5033060;28;20211;-65
2022/03/18 06:15:53;;;;;;;20.87;18.70;;;1.20;99.90;;;;;;5032261;28;20541;-64
2022/03/18 06:18:19;;;;;;;31.40;20.50;;;1.30;99.90;;;;;;5033750;28;20554;-64
2022/03/18 06:20:52;;;;;;;23.00;17.60;;;1.30;99.90;;;;;;5032846;28;20338;-64
2022/03/18 06:23:18;;;;;;;29.90;16.90;;;1.30;99.90;;;;;;5048880;28;20207;-64
2022/03/18 06:25:44;;;;;;;22.73;16.60;;;1.40;99.90;;;;;;5052456;28;20171;-64
2022/03/18 06:28:10;;;;;;;26.03;18.13;;;1.60;99.90;;;;;;5050998;28;20201;-64
2022/03/18 06:30:35;;;;;;;23.83;18.80;;;1.70;99.90;;;;;;5052812;28;20305;-64
2022/03/18 06:33:01;;;;;;;25.03;18.87;;;1.80;99.90;;;;;;5039680;28;20199;-64
2022/03/18 06:35:27;;;;;;;28.10;18.57;;;1.80;99.90;;;;;;5032601;28;20784;-64
2022/03/18 06:37:54;;;;;;;22.13;19.40;;;1.90;99.90;;;;;;5034168;28;20577;-64
2022/03/18 06:40:19;;;;;;;31.47;19.17;;;2.00;99.90;;;;;;5031891;28;20492;-64
2022/03/18 06:42:45;;;;;;;27.57;19.43;;;2.10;99.90;;;;;;5042001;28;20613;-64
2022/03/18 06:45:11;;;;;;;23.47;19.60;;;2.20;99.90;;;;;;5050923;28;20183;-65
2022/03/18 06:47:37;;;;;;;24.77;19.57;;;2.30;99.90;;;;;;5048686;28;20182;-65
2022/03/18 06:50:02;;;;;;;29.43;22.37;;;2.30;99.90;;;;;;5032439;28;20210;-64
2022/03/18 06:52:28;;;;;;;24.83;22.30;;;2.40;99.90;;;;;;5040030;28;20203;-65
2022/03/18 06:54:54;;;;;;;27.57;22.10;;;2.50;99.90;;;;;;5035474;28;20199;-65
2022/03/18 06:57:19;;;;;;;34.33;23.53;;;3.00;99.90;;;;;;5032974;28;20218;-65
2022/03/18 06:59:45;;;;;;;26.37;20.13;;;3.70;99.90;;;;;;5050893;28;20167;-62
2022/03/18 07:02:13;;;;;;;28.77;19.10;;;4.60;99.90;;;;;;5051565;28;20190;-62
2022/03/18 07:04:39;;;;;;;22.77;17.97;;;5.40;99.90;;;;;;5051191;28;20177;-62
2022/03/18 07:07:06;;;;;;;18.87;16.80;;;6.10;99.90;;;;;;5046686;28;20225;-62
2022/03/18 07:09:32;;;;;;;16.90;15.07;;;6.70;99.90;;;;;;5031491;28;20700;-62
2022/03/18 07:11:57;;;;;;;20.30;12.77;;;7.10;99.90;;;;;;5035557;28;20409;-62
2022/03/18 07:14:23;;;;;;;13.57;11.57;;;7.50;99.90;;;;;;5051815;28;20193;-62
2022/03/18 07:19:33;;;;;;;12.87;9.97;;;8.70;99.90;;;;;;5031587;28;20555;-65
2022/03/18 07:21:59;;;;;;;11.47;8.97;;;9.50;99.90;;;;;;5033028;28;20195;-64
2022/03/18 07:24:24;;;;;;;10.33;8.07;;;10.20;99.90;;;;;;5049427;28;20185;-64
2022/03/18 07:26:50;;;;;;;14.33;8.20;;;10.70;99.90;;;;;;5040244;28;20179;-62
2022/03/18 07:29:15;;;;;;;10.50;7.93;;;11.30;99.90;;;;;;5030945;28;20650;-64
2022/03/18 07:31:41;;;;;;;9.70;8.00;;;11.60;99.90;;;;;;5032354;28;20203;-63
2022/03/18 07:34:07;;;;;;;10.67;7.77;;;11.80;99.90;;;;;;5031454;28;20174;-63
2022/03/18 07:36:33;;;;;;;9.27;8.27;;;11.90;99.90;;;;;;5031679;28;20242;-63
2022/03/18 07:38:59;;;;;;;8.93;7.87;;;11.90;99.90;;;;;;5031014;28;20213;-63
2022/03/18 07:41:24;;;;;;;10.93;8.60;;;12.10;99.90;;;;;;5032563;28;20175;-63
2022/03/18 07:43:50;;;;;;;9.03;7.57;;;12.50;99.90;;;;;;5034715;28;20598;-63
2022/03/18 07:46:17;;;;;;;11.70;8.00;;;13.00;99.90;;;;;;5040601;28;20195;-63
2022/03/18 07:48:44;;;;;;;11.13;7.93;;;13.50;99.90;;;;;;5032539;28;20591;-63
2022/03/18 07:51:11;;;;;;;10.03;7.57;;;14.00;99.90;;;;;;5051270;28;20600;-63
2022/03/18 07:53:37;;;;;;;9.23;7.73;;;14.40;99.90;;;;;;5050156;28;20249;-63
2022/03/18 07:56:04;;;;;;;9.53;7.80;;;14.50;99.90;;;;;;5050253;28;20186;-63
2022/03/18 07:58:29;;;;;;;8.30;7.40;;;14.70;99.90;;;;;;5051106;28;20201;-64
2022/03/18 08:00:55;;;;;;;10.97;7.70;;;15.00;99.90;;;;;;5032049;28;20266;-63
2022/03/18 08:03:21;;;;;;;8.63;6.80;;;15.10;99.90;;;;;;5031123;28;20682;-64
2022/03/18 08:05:47;;;;;;;10.83;7.10;;;15.30;99.90;;;;;;5030922;28;20183;-64
2022/03/18 08:08:13;;;;;;;8.60;7.70;;;15.30;99.90;;;;;;5030758;28;20188;-64
2022/03/18 08:10:39;;;;;;;8.33;6.83;;;15.30;99.90;;;;;;5046012;28;20566;-64
2022/03/18 08:13:05;;;;;;;11.73;7.47;;;15.20;99.90;;;;;;5051068;28;20194;-63
2022/03/18 08:15:31;;;;;;;12.30;7.97;;;15.20;99.90;;;;;;5037275;28;20174;-63
2022/03/18 08:17:57;;;;;;;8.87;7.33;;;15.60;99.90;;;;;;5031079;28;20163;-64
2022/03/18 08:20:24;;;;;;;11.30;7.50;;;15.80;99.90;;;;;;5043045;28;20657;-64
2022/03/18 08:22:50;;;;;;;11.07;7.20;;;16.20;99.90;;;;;;5051014;28;20199;-65
2022/03/18 08:25:17;;;;;;;10.80;6.87;;;16.60;99.90;;;;;;5048912;28;20200;-65
2022/03/18 08:27:43;;;;;;;8.73;6.83;;;17.00;99.90;;;;;;5050945;28;20254;-65
2022/03/18 08:30:11;;;;;;;6.83;6.20;;;17.30;99.90;;;;;;5041424;28;20286;-65
2022/03/18 08:32:37;;;;;;;9.87;6.80;;;17.50;99.90;;;;;;5034205;28;20191;-65
2022/03/18 08:35:03;;;;;;;9.60;7.13;;;17.70;99.90;;;;;;5041964;28;20185;-65
2022/03/18 08:40:14;;;;;;;8.47;6.83;;;17.40;99.90;;;;;;5053461;28;20182;-65
2022/03/18 08:42:40;;;;;;;9.47;6.57;;;17.90;99.90;;;;;;5042976;28;20226;-65
2022/03/18 08:45:07;;;;;;;9.93;6.47;;;18.20;99.90;;;;;;5034739;28;20237;-65
2022/03/18 08:47:33;;;;;;;7.13;6.43;;;18.20;99.90;;;;;;5039139;28;20262;-65
2022/03/18 08:49:58;;;;;;;7.80;5.93;;;18.30;99.90;;;;;;5052798;28;20305;-65
2022/03/18 08:52:24;;;;;;;8.77;6.15;;;18.00;99.90;;;;;;5052982;28;20214;-65
2022/03/18 08:54:50;;;;;;;9.63;7.13;;;18.30;99.90;;;;;;5035057;28;20597;-65
2022/03/18 08:57:16;;;;;;;8.93;6.33;;;17.90;99.90;;;;;;5044409;28;20646;-65
2022/03/18 08:59:42;;;;;;;6.70;6.07;;;17.30;99.90;;;;;;5038297;28;20183;-65
2022/03/18 09:02:09;;;;;;;8.87;6.87;;;17.40;99.90;;;;;;5054343;28;20219;-65
2022/03/18 09:04:34;;;;;;;6.85;6.25;;;17.70;99.90;;;;;;5054125;28;20179;-64
2022/03/18 09:07:00;;;;;;;10.63;6.07;;;18.20;99.90;;;;;;5054505;28;20167;-65
2022/03/18 09:09:25;;;;;;;6.17;5.67;;;18.00;99.90;;;;;;5053508;28;20202;-65
2022/03/18 09:11:51;;;;;;;7.32;5.80;;;17.90;99.90;;;;;;5054946;28;20289;-65
2022/03/18 09:14:17;;;;;;;7.33;6.57;;;17.60;99.90;;;;;;5053162;28;20201;-65
2022/03/18 09:16:43;;;;;;;6.38;5.88;;;17.90;99.90;;;;;;5054152;28;20650;-65
2022/03/18 09:19:08;;;;;;;8.30;6.38;;;18.20;99.90;;;;;;5053880;28;20174;-65
2022/03/18 09:21:34;;;;;;;10.90;6.40;;;18.30;99.90;;;;;;5052571;28;20193;-65
2022/03/18 09:24:01;;;;;;;7.10;6.47;;;18.20;99.90;;;;;;5054270;28;20202;-65
2022/03/18 09:26:27;;;;;;;7.83;6.03;;;18.30;99.90;;;;;;5053590;28;20232;-65
2022/03/18 09:28:53;;;;;;;12.18;6.95;;;18.10;99.90;;;;;;5052737;28;20262;-65
2022/03/18 09:31:19;;;;;;;9.15;7.25;;;18.20;99.90;;;;;;5053153;28;20632;-65
2022/03/18 09:33:46;;;;;;;7.88;6.30;;;18.50;99.90;;;;;;5053148;28;20277;-65
2022/03/18 09:36:17;;;;;;;11.80;7.07;;;18.20;99.90;;;;;;5057779;28;20181;-65
2022/03/18 09:38:43;;;;;;;6.90;6.23;;;17.90;99.90;;;;;;5053709;28;20185;-65
2022/03/18 09:41:09;;;;;;;7.10;6.50;;;17.90;99.90;;;;;;5053753;28;20177;-65
2022/03/18 09:43:36;;;;;;;7.60;6.17;;;17.80;99.90;;;;;;5052764;28;20199;-65
2022/03/18 09:46:10;;;;;;;6.95;5.95;;;17.80;99.90;;;;;;5053162;28;20229;-65
2022/03/18 09:48:37;;;;;;;7.00;5.78;;;18.20;99.90;;;;;;5053025;28;20263;-65
2022/03/18 09:51:02;;;;;;;6.53;6.00;;;18.60;99.90;;;;;;5052453;28;20678;-65
2022/03/18 09:53:28;;;;;;;6.20;5.60;;;19.30;99.90;;;;;;5086974;23;20300;-64
2022/03/18 09:55:53;;;;;;;7.75;5.97;;;19.40;99.90;;;;;;5073243;28;20695;-64
2022/03/18 09:58:21;;;;;;;5.65;4.80;;;19.00;99.90;;;;;;5072365;28;20175;-65
2022/03/18 10:00:50;;;;;;;6.65;5.60;;;18.70;99.40;;;;;;5072443;28;20839;-64
2022/03/18 10:03:17;;;;;;;8.37;5.73;;;18.20;98.10;;;;;;5061682;28;20202;-66
2022/03/18 10:05:47;;;;;;;5.83;5.03;;;17.80;98.40;;;;;;5051552;28;20185;-64
2022/03/18 10:08:13;;;;;;;7.87;5.40;;;17.50;99.80;;;;;;5052860;28;20175;-64
2022/03/18 10:10:46;;;;;;;6.27;5.60;;;17.30;99.30;;;;;;5053166;28;20201;-66
2022/03/18 10:13:13;;;;;;;7.73;5.70;;;17.50;99.90;;;;;;5052317;28;20193;-65
2022/03/18 10:15:39;;;;;;;7.43;5.80;;;18.00;99.90;;;;;;5053026;28;20305;-66
2022/03/18 10:18:04;;;;;;;6.78;5.63;;;18.40;98.50;;;;;;5053282;28;20177;-65
2022/03/18 10:20:34;;;;;;;9.77;6.20;;;18.60;97.50;;;;;;5051913;28;20520;-64
2022/03/18 10:23:22;;;;;;;6.27;5.30;;;18.50;98.00;;;;;;5052807;28;20197;-65
2022/03/18 10:25:56;;;;;;;6.20;5.57;;;18.50;96.70;;;;;;5052631;28;20198;-65
2022/03/18 10:28:37;;;;;;;6.25;5.70;;;18.70;97.30;;;;;;5052995;28;20189;-66
2022/03/18 10:31:22;;;;;;;6.72;4.75;;;19.10;99.70;;;;;;5052886;28;20225;-65
2022/03/18 10:39:30;;;;;;;6.05;5.55;;;20.10;95.90;;;;;;5052914;28;20178;-65
2022/03/18 10:42:00;;;;;;;6.78;4.95;;;20.60;94.70;;;;;;5053050;28;20555;-64
2022/03/18 10:44:27;;;;;;;5.05;4.75;;;20.10;92.10;;;;;;5051347;28;20175;-65
2022/03/18 10:46:56;;;;;;;5.20;4.75;;;20.30;95.10;;;;;;5052621;28;20175;-65
2022/03/18 10:49:24;;;;;;;4.85;4.45;;;20.30;92.30;;;;;;5052479;28;20171;-66
2022/03/18 10:51:52;;;;;;;5.53;4.93;;;20.20;91.10;;;;;;5052569;28;20293;-66
2022/03/18 10:54:25;;;;;;;5.65;5.10;;;20.40;92.90;;;;;;5052446;28;20210;-65
2022/03/18 10:56:58;;;;;;;4.60;4.20;;;20.80;90.70;;;;;;5052128;28;20171;-66
2022/03/18 10:59:27;;;;;;;4.60;4.15;;;20.90;91.20;;;;;;5052470;28;20228;-66
2022/03/18 11:01:56;;;;;;;5.53;4.18;;;20.80;92.40;;;;;;5052482;28;20199;-65
2022/03/18 11:04:23;;;;;;;4.53;4.13;;;20.90;91.00;;;;;;5052012;28;20536;-65
2022/03/18 11:12:27;;;;;;;11.73;5.20;;;19.90;89.60;;;;;;5051053;28;20201;-65
2022/03/18 11:14:55;;;;;;;5.03;4.63;;;19.40;82.30;;;;;;5051718;28;20252;-65
2022/03/18 11:17:22;;;;;;;5.27;4.87;;;19.00;87.70;;;;;;5051746;28;20269;-66
2022/03/18 11:19:48;;;;;;;5.00;4.40;;;19.30;85.80;;;;;;5051650;28;20177;-65
2022/03/18 11:22:16;;;;;;;5.67;5.17;;;19.30;86.20;;;;;;5051181;28;20167;-65
2022/03/18 11:24:44;;;;;;;4.80;4.50;;;19.20;83.80;;;;;;5051065;28;20173;-65
2022/03/18 11:27:11;;;;;;;4.80;4.50;;;19.10;86.10;;;;;;5051690;28;20297;-66
2022/03/18 11:29:38;;;;;;;5.07;4.70;;;18.60;84.00;;;;;;5051262;28;20545;-64
2022/03/18 11:32:10;;;;;;;5.67;5.17;;;18.60;90.00;;;;;;5051459;28;20297;-65
2022/03/18 11:34:46;;;;;;;5.53;5.03;;;18.90;87.50;;;;;;5051059;28;20171;-64
2022/03/18 11:37:12;;;;;;;5.28;4.75;;;19.10;90.80;;;;;;5051598;28;20190;-65
2022/03/18 11:39:38;;;;;;;5.47;4.57;;;19.40;88.00;;;;;;5051335;28;20221;-67
2022/03/18 11:42:09;;;;;;;5.18;4.75;;;19.60;88.80;;;;;;5051541;28;20182;-64
2022/03/18 11:44:42;;;;;;;5.97;5.47;;;19.50;81.80;;;;;;5050506;28;20170;-66
2022/03/18 11:47:23;;;;;;;4.70;4.40;;;19.10;83.10;;;;;;5051430;28;20456;-66
2022/03/18 11:49:49;;;;;;;5.40;4.90;;;19.20;86.20;;;;;;5051249;28;20187;-66
2022/03/18 11:52:15;;;;;;;4.87;4.50;;;19.50;82.60;;;;;;5051438;28;20170;-66
2022/03/18 11:55:10;;;;;;;5.22;4.80;;;19.20;82.60;;;;;;5050769;28;20167;-66
2022/03/18 11:57:45;;;;;;;4.72;4.32;;;19.20;83.20;;;;;;5050694;28;20262;-66
2022/03/18 12:00:32;;;;;;;5.20;4.80;;;18.90;83.60;;;;;;5050960;28;20706;-66
2022/03/18 12:03:00;;;;;;;4.77;4.37;;;19.10;82.10;;;;;;5050971;28;20684;-65
2022/03/18 12:05:29;;;;;;;5.40;4.90;;;19.20;76.80;;;;;;5050692;28;20701;-67
2022/03/18 12:07:56;;;;;;;5.03;4.70;;;19.00;81.10;;;;;;5051047;28;20178;-66
2022/03/18 12:10:35;;;;;;;5.20;4.80;;;18.90;76.20;;;;;;5051081;28;20234;-64
2022/03/18 12:13:05;;;;;;;4.80;4.40;;;18.80;79.80;;;;;;5050374;28;20214;-64
2022/03/18 12:15:38;;;;;;;5.40;4.72;;;18.80;81.90;;;;;;5050420;28;20514;-64
2022/03/18 12:18:04;;;;;;;5.27;4.87;;;18.90;73.00;;;;;;5051341;28;20254;-65
2022/03/18 12:20:36;;;;;;;4.60;4.30;;;18.70;74.00;;;;;;5050663;28;20174;-65
2022/03/18 12:23:09;;;;;;;5.40;5.00;;;18.50;77.00;;;;;;5050952;28;20195;-66
2022/03/18 12:25:40;;;;;;;5.23;4.93;;;18.60;78.10;;;;;;5050612;28;20680;-65
2022/03/18 12:28:06;;;;;;;5.47;4.97;;;18.50;72.30;;;;;;5050842;28;20240;-66
2022/03/18 12:30:33;;;;;;;4.90;4.60;;;18.10;72.30;;;;;;5050731;28;20206;-66
2022/03/18 12:33:01;;;;;;;5.00;4.70;;;18.10;75.60;;;;;;5050105;28;20640;-66
2022/03/18 12:35:35;;;;;;;4.73;4.40;;;18.00;74.80;;;;;;5039251;28;20181;-66
2022/03/18 12:38:15;;;;;;;5.20;4.37;;;18.30;79.20;;;;;;5050907;28;20248;-66
2022/03/18 12:40:43;;;;;;;5.00;4.70;;;18.40;71.70;;;;;;5031964;28;20540;-67
2022/03/18 12:43:09;;;;;;;5.07;4.63;;;18.50;70.60;;;;;;5041956;28;20595;-65
2022/03/18 12:45:38;;;;;;;5.27;4.90;;;18.20;68.80;;;;;;5050155;28;20637;-66
2022/03/18 12:48:08;;;;;;;4.97;4.67;;;18.10;69.10;;;;;;5045789;28;20662;-64
2022/03/18 12:50:43;;;;;;;4.80;4.50;;;18.30;68.00;;;;;;5048550;28;20216;-64
2022/03/18 12:53:16;;;;;;;5.00;4.70;;;18.20;66.50;;;;;;5049991;28;20214;-66
2022/03/18 12:55:43;;;;;;;5.23;4.77;;;18.20;70.70;;;;;;5049872;28;20661;-64
2022/03/18 12:58:10;;;;;;;4.77;4.40;;;18.50;71.00;;;;;;5050443;28;20194;-66
2022/03/18 13:00:40;;;;;;;5.17;4.80;;;18.30;65.00;;;;;;5049764;28;20175;-66
2022/03/18 13:03:08;;;;;;;4.80;4.50;;;18.30;67.40;;;;;;5050465;28;20195;-66
2022/03/18 13:05:34;;;;;;;5.40;5.00;;;18.20;64.80;;;;;;5050050;28;20660;-67
2022/03/18 13:08:07;;;;;;;5.07;4.57;;;18.00;64.70;;;;;;5050871;28;20187;-67